createdAt,value
2023-03-10T02:34:55.039Z,22.53
2023-03-10T03:56:38.592Z,28.43
2023-03-10T04:32:24.556Z,21.27
2023-03-10T04:48:13.016Z,17.67
2023-03-10T04:57:08.615Z,22.20
2023-03-10T05:01:35.108Z,21.80
2023-03-10T05:21:30.591Z,19.57
2023-03-10T05:41:38.099Z,17.43
2023-03-10T05:46:10.510Z,15.90
2023-03-10T06:22:23.429Z,14.67
2023-03-10T06:32:58.057Z,18.17
2023-03-10T06:58:59.625Z,15.80
2023-03-10T08:27:18.747Z,12.23
2023-03-10T10:52:27.528Z,11.13
2023-03-10T10:56:36.493Z,7.47
2023-03-10T11:00:55.290Z,6.20
2023-03-10T11:05:15.413Z,9.00
2023-03-10T11:09:25.842Z,8.83
2023-03-10T11:13:40.845Z,12.23
2023-03-10T11:17:55.297Z,7.97
2023-03-10T11:22:18.723Z,7.97
2023-03-10T11:26:44.887Z,6.87
2023-03-10T11:31:00.642Z,5.30
2023-03-10T11:35:20.962Z,9.70
2023-03-10T11:39:45.809Z,8.07
2023-03-10T11:44:00.652Z,3.70
2023-03-10T11:48:26.651Z,7.73
2023-03-10T11:52:36.215Z,6.17
2023-03-10T11:56:46.091Z,5.77
2023-03-10T12:00:57.325Z,5.07
2023-03-10T12:05:12.188Z,5.37
2023-03-10T12:09:37.454Z,7.30
2023-03-10T12:13:48.455Z,5.87
2023-03-10T12:17:59.132Z,6.00
2023-03-10T12:22:26.153Z,5.43
2023-03-10T12:27:01.350Z,3.37
2023-03-10T12:31:12.061Z,4.93
2023-03-10T12:35:47.440Z,5.37
2023-03-10T12:39:56.509Z,8.37
2023-03-10T12:44:27.095Z,5.93
2023-03-10T12:48:40.382Z,8.13
2023-03-10T12:52:55.792Z,9.20
2023-03-10T12:57:11.411Z,4.90
2023-03-10T13:01:24.089Z,2.57
2023-03-10T13:05:35.599Z,2.37
2023-03-10T13:09:49.442Z,4.20
2023-03-10T13:14:02.826Z,4.03
2023-03-10T13:18:17.514Z,4.27
2023-03-10T13:22:26.773Z,3.30
2023-03-10T13:26:37.187Z,3.00
2023-03-10T13:30:47.162Z,2.43
2023-03-10T13:34:57.370Z,3.67
2023-03-10T13:39:16.381Z,2.67
2023-03-10T13:43:41.824Z,5.80
2023-03-10T13:47:51.176Z,5.63
2023-03-10T13:52:01.477Z,4.00
2023-03-10T13:56:21.956Z,3.90
2023-03-10T14:00:33.065Z,3.13
2023-03-10T14:04:48.837Z,3.40
2023-03-10T14:08:58.183Z,6.50
2023-03-10T14:13:07.041Z,3.30
2023-03-10T14:17:34.067Z,3.03
2023-03-10T14:21:58.483Z,4.27
2023-03-10T14:26:15.943Z,6.53
2023-03-10T14:30:27.665Z,3.50
2023-03-10T14:34:38.140Z,6.40
2023-03-10T14:38:47.208Z,3.47
2023-03-10T14:43:00.694Z,4.63
2023-03-10T14:47:11.080Z,3.87
2023-03-10T14:51:34.392Z,4.23
2023-03-10T14:55:47.960Z,2.93
2023-03-10T14:59:56.782Z,4.83
2023-03-10T15:04:05.878Z,4.83
2023-03-10T15:08:16.215Z,3.37
2023-03-10T15:12:25.169Z,8.27
2023-03-10T15:16:33.991Z,5.20
2023-03-10T15:20:43.558Z,4.90
2023-03-10T15:24:53.832Z,3.87
2023-03-10T15:29:03.038Z,4.53
2023-03-10T15:33:12.121Z,2.60
2023-03-10T15:37:21.006Z,5.83
2023-03-10T15:41:34.710Z,4.50
2023-03-10T15:45:46.920Z,3.33
2023-03-10T15:49:55.802Z,7.00
2023-03-10T15:54:04.754Z,5.13
2023-03-10T15:58:15.237Z,4.80
2023-03-10T16:02:24.305Z,3.40
2023-03-10T16:06:33.576Z,3.63
2023-03-10T16:10:42.693Z,4.53
2023-03-10T16:14:53.122Z,3.73
2023-03-10T16:19:03.011Z,2.37
2023-03-10T16:23:11.910Z,3.50
2023-03-10T16:27:20.856Z,3.43
2023-03-10T16:31:31.342Z,2.60
2023-03-10T16:35:40.655Z,4.67
2023-03-10T16:39:49.534Z,2.90
2023-03-10T16:43:58.522Z,3.77
2023-03-10T16:48:09.211Z,3.67
2023-03-10T16:52:18.112Z,3.80
2023-03-10T16:56:28.001Z,4.80
2023-03-10T17:00:38.546Z,2.87
2023-03-10T17:04:49.408Z,4.43
2023-03-10T17:08:58.666Z,6.37
2023-03-10T17:13:07.521Z,6.77
2023-03-10T17:17:16.378Z,7.97
2023-03-10T17:21:28.827Z,6.23
2023-03-10T17:25:39.118Z,3.60
2023-03-10T17:29:48.145Z,4.60
2023-03-10T17:33:59.152Z,6.90
2023-03-10T17:38:09.551Z,4.73
2023-03-10T17:42:18.650Z,4.30
2023-03-10T17:46:29.644Z,4.63
2023-03-10T17:50:39.085Z,8.87
2023-03-10T17:54:49.587Z,5.70
2023-03-10T17:58:59.152Z,6.40
2023-03-10T18:03:08.267Z,4.10
2023-03-10T18:07:17.164Z,6.30
2023-03-10T18:11:28.147Z,5.77
2023-03-10T18:15:38.020Z,6.73
2023-03-10T18:19:47.009Z,8.13
2023-03-10T18:23:56.358Z,7.10
2023-03-10T18:28:08.232Z,6.90
2023-03-10T18:32:17.145Z,6.73
2023-03-10T18:36:26.892Z,5.60
2023-03-10T18:40:36.107Z,5.73
2023-03-10T18:44:48.391Z,4.63
2023-03-10T18:48:57.288Z,7.33
2023-03-10T18:53:06.339Z,9.30
2023-03-10T18:57:16.181Z,8.90
2023-03-10T19:01:27.270Z,7.63
2023-03-10T19:05:36.235Z,7.83
2023-03-10T19:09:45.426Z,6.87
2023-03-10T19:13:54.347Z,7.87
2023-03-10T19:18:04.763Z,6.83
2023-03-10T19:22:13.688Z,8.73
2023-03-10T19:26:22.615Z,8.40
2023-03-10T19:30:32.890Z,6.93
2023-03-10T19:34:43.244Z,5.40
2023-03-10T19:38:52.087Z,8.67
2023-03-10T19:43:01.034Z,6.20
2023-03-10T19:47:10.194Z,2.70
2023-03-10T19:51:25.142Z,5.60
2023-03-10T19:55:34.072Z,5.10
2023-03-10T19:59:43.561Z,6.93
2023-03-10T20:03:52.940Z,5.40
2023-03-10T20:08:03.413Z,4.87
2023-03-10T20:12:12.287Z,4.00
2023-03-10T20:16:24.403Z,4.33
2023-03-10T20:20:33.924Z,3.53
2023-03-10T20:24:44.278Z,4.10
2023-03-10T20:28:53.678Z,7.00
2023-03-10T20:33:03.145Z,3.83
2023-03-10T20:37:12.080Z,4.23
2023-03-10T20:41:23.740Z,3.80
2023-03-10T20:45:33.341Z,3.63
2023-03-10T20:49:42.222Z,4.23
2023-03-10T20:53:52.094Z,3.77
2023-03-10T20:58:03.371Z,3.47
2023-03-10T21:02:16.517Z,3.70
2023-03-10T21:06:27.467Z,5.20
2023-03-10T21:10:36.532Z,4.27
2023-03-10T21:14:47.179Z,4.13
2023-03-10T21:18:56.284Z,4.97
2023-03-10T21:23:05.261Z,3.80
2023-03-10T21:27:14.275Z,4.33
2023-03-10T21:31:25.280Z,3.90
2023-03-10T21:35:38.761Z,3.93
2023-03-10T21:39:48.394Z,3.40
2023-03-10T21:43:59.257Z,4.00
2023-03-10T21:48:11.815Z,4.60
2023-03-10T21:52:20.731Z,3.63
2023-03-10T21:56:30.266Z,4.73
2023-03-10T22:00:39.328Z,4.43
2023-03-10T22:04:49.841Z,4.20
2023-03-10T22:09:39.914Z,3.13
2023-03-10T22:13:53.733Z,3.13
2023-03-10T22:18:03.971Z,3.30
2023-03-10T22:22:14.565Z,3.83
2023-03-10T22:26:27.934Z,3.07
2023-03-10T22:30:48.699Z,2.60
2023-03-10T22:35:02.107Z,3.17
2023-03-10T22:39:14.672Z,3.10
2023-03-10T22:43:24.930Z,2.93
2023-03-10T22:47:35.090Z,2.87
2023-03-10T22:51:44.372Z,3.07
2023-03-10T22:55:55.057Z,2.80
2023-03-10T23:00:05.356Z,2.70
2023-03-10T23:04:15.647Z,2.20
2023-03-10T23:08:24.865Z,1.80
2023-03-10T23:12:35.334Z,2.07
2023-03-10T23:16:44.456Z,1.97
2023-03-10T23:20:53.603Z,1.77
2023-03-10T23:25:02.666Z,1.60
2023-03-10T23:29:13.973Z,1.60
2023-03-10T23:33:25.398Z,1.80
2023-03-10T23:37:34.887Z,1.10
2023-03-10T23:41:43.910Z,1.20
2023-03-10T23:45:54.510Z,1.50
2023-03-10T23:50:03.867Z,1.20
2023-03-10T23:54:13.283Z,0.80
2023-03-10T23:58:22.361Z,1.13
